Terminal Aerodrome Forecast
Issued by NWS Green Bay, WI

Home | Current Version | Previous Version | Graphics & Text | Print | Product List | Glossary On
Versions: 1 2 3 4 5 6 7 8 9 10 11 12 13 14 15 16 17 18 19 20 21 22 23 24 25 26 27 28 29 30
000
FTUS43 KGRB 201700
TAFGRB
TAF
KGRB 201735Z 2018/2118 28017G24KT P6SM SCT035
      TEMPO 2019/2023 SCT022 BKN035
     FM202300 28010KT P6SM SCT040
     FM210800 26004KT P6SM SKC
     FM211400 23008KT P6SM BKN200=

USA.gov is the U.S. government's official web portal to all federal, state and local government web resources and services.